sensor_id;sensor_type;location;lat;lon;timestamp;pressure;altitude;pressure_sealevel;temperature;humidity
75409;BME280;63979;55.644;37.734;2023-04-15T00:04:03;101336.38;;;2.35;24.58
75409;BME280;63979;55.644;37.734;2023-04-15T00:09:04;101333.91;;;2.21;24.72
75409;BME280;63979;55.644;37.734;2023-04-15T00:14:06;101348.72;;;2.31;24.42
75409;BME280;63979;55.644;37.734;2023-04-15T00:19:07;101386.47;;;2.32;25.15
75409;BME280;63979;55.644;37.734;2023-04-15T00:24:08;101360.28;;;2.16;24.72
75409;BME280;63979;55.644;37.734;2023-04-15T00:29:09;101373.47;;;2.15;24.85
75409;BME280;63979;55.644;37.734;2023-04-15T00:34:10;101376.13;;;2.12;25.24
75409;BME280;63979;55.644;37.734;2023-04-15T00:39:12;101313.34;;;1.65;25.88
75409;BME280;63979;55.644;37.734;2023-04-15T00:44:13;101410.47;;;1.98;25.56
75409;BME280;63979;55.644;37.734;2023-04-15T00:49:14;101408.75;;;1.93;25.52
75409;BME280;63979;55.644;37.734;2023-04-15T00:54:17;101402.72;;;1.81;25.94
75409;BME280;63979;55.644;37.734;2023-04-15T00:59:19;101397.50;;;1.71;25.72
75409;BME280;63979;55.644;37.734;2023-04-15T01:04:21;101424.63;;;1.82;25.93
75409;BME280;63979;55.644;37.734;2023-04-15T01:09:22;101416.00;;;1.59;26.08
75409;BME280;63979;55.644;37.734;2023-04-15T01:14:24;101351.38;;;1.15;26.21
75409;BME280;63979;55.644;37.734;2023-04-15T01:19:25;101424.84;;;1.51;26.12
75409;BME280;63979;55.644;37.734;2023-04-15T01:24:27;101440.59;;;1.56;26.57
75409;BME280;63979;55.644;37.734;2023-04-15T01:29:31;101443.25;;;1.48;26.84
75409;BME280;63979;55.644;37.734;2023-04-15T01:34:32;101444.19;;;1.41;26.84
75409;BME280;63979;55.644;37.734;2023-04-15T01:39:52;101450.34;;;1.31;26.85
75409;BME280;63979;55.644;37.734;2023-04-15T01:44:53;101466.13;;;1.31;27.07
75409;BME280;63979;55.644;37.734;2023-04-15T01:49:55;101446.00;;;1.24;27.10
75409;BME280;63979;55.644;37.734;2023-04-15T01:54:57;101461.81;;;1.21;27.37
75409;BME280;63979;55.644;37.734;2023-04-15T01:59:59;101455.72;;;1.08;26.94
75409;BME280;63979;55.644;37.734;2023-04-15T02:05:01;101467.97;;;1.14;27.33
75409;BME280;63979;55.644;37.734;2023-04-15T02:10:06;101503.91;;;1.12;27.38
75409;BME280;63979;55.644;37.734;2023-04-15T02:15:10;101485.50;;;1.03;27.27
75409;BME280;63979;55.644;37.734;2023-04-15T02:20:12;101496.03;;;1.09;27.50
75409;BME280;63979;55.644;37.734;2023-04-15T02:25:15;101494.28;;;1.02;27.37
75409;BME280;63979;55.644;37.734;2023-04-15T02:30:21;101482.91;;;0.97;27.26
75409;BME280;63979;55.644;37.734;2023-04-15T02:35:24;101488.19;;;0.92;27.40
75409;BME280;63979;55.644;37.734;2023-04-15T02:40:27;101522.31;;;1.03;27.41
75409;BME280;63979;55.644;37.734;2023-04-15T02:45:28;101522.31;;;1.01;27.17
75409;BME280;63979;55.644;37.734;2023-04-15T02:50:31;101542.47;;;1.01;27.68
75409;BME280;63979;55.644;37.734;2023-04-15T02:55:34;101524.94;;;1.03;27.38
75409;BME280;63979;55.644;37.734;2023-04-15T03:00:36;101539.84;;;1.17;27.71
75409;BME280;63979;55.644;37.734;2023-04-15T03:05:38;101541.56;;;1.20;27.87
75409;BME280;63979;55.644;37.734;2023-04-15T03:10:40;101538.91;;;1.29;27.67
75409;BME280;63979;55.644;37.734;2023-04-15T03:15:44;101559.94;;;1.41;27.25
75409;BME280;63979;55.644;37.734;2023-04-15T03:20:47;101551.13;;;1.48;26.66
75409;BME280;63979;55.644;37.734;2023-04-15T03:25:49;101561.63;;;1.54;27.73
75409;BME280;63979;55.644;37.734;2023-04-15T03:30:51;101557.19;;;1.69;27.09
75409;BME280;63979;55.644;37.734;2023-04-15T03:35:54;101578.19;;;1.84;26.76
75409;BME280;63979;55.644;37.734;2023-04-15T03:40:57;101553.66;;;1.79;26.70
75409;BME280;63979;55.644;37.734;2023-04-15T03:45:59;101590.34;;;2.06;26.86
75409;BME280;63979;55.644;37.734;2023-04-15T03:51:01;101599.13;;;2.14;26.17
75409;BME280;63979;55.644;37.734;2023-04-15T03:56:04;101584.09;;;2.29;26.37
75409;BME280;63979;55.644;37.734;2023-04-15T04:01:07;101589.28;;;2.39;26.37
75409;BME280;63979;55.644;37.734;2023-04-15T04:06:09;101578.50;;;2.73;26.47
75409;BME280;63979;55.644;37.734;2023-04-15T04:11:13;101594.00;;;3.09;25.46
75409;BME280;63979;55.644;37.734;2023-04-15T04:16:15;101593.81;;;3.28;24.90
75409;BME280;63979;55.644;37.734;2023-04-15T04:21:18;101607.31;;;3.82;25.15
75409;BME280;63979;55.644;37.734;2023-04-15T04:26:21;101608.06;;;3.93;25.11
75409;BME280;63979;55.644;37.734;2023-04-15T04:31:24;101609.03;;;3.84;25.23
75409;BME280;63979;55.644;37.734;2023-04-15T04:36:26;101613.16;;;4.06;23.72
75409;BME280;63979;55.644;37.734;2023-04-15T04:41:28;101617.88;;;4.46;23.03
75409;BME280;63979;55.644;37.734;2023-04-15T04:46:31;101619.41;;;5.16;22.53
75409;BME280;63979;55.644;37.734;2023-04-15T04:51:34;101628.41;;;5.54;21.54
75409;BME280;63979;55.644;37.734;2023-04-15T04:56:37;101623.94;;;5.59;21.54
75409;BME280;63979;55.644;37.734;2023-04-15T05:01:40;101604.41;;;5.64;21.79
75409;BME280;63979;55.644;37.734;2023-04-15T05:06:43;101625.94;;;5.46;21.59
75409;BME280;63979;55.644;37.734;2023-04-15T05:11:45;101636.06;;;5.71;22.30
75409;BME280;63979;55.644;37.734;2023-04-15T05:16:47;101631.00;;;6.05;21.84
75409;BME280;63979;55.644;37.734;2023-04-15T05:21:50;101634.81;;;6.72;20.99
75409;BME280;63979;55.644;37.734;2023-04-15T05:26:52;101636.63;;;7.07;20.29
75409;BME280;63979;55.644;37.734;2023-04-15T05:31:54;101588.69;;;7.11;19.91
75409;BME280;63979;55.644;37.734;2023-04-15T05:36:57;101630.22;;;7.80;19.28
75409;BME280;63979;55.644;37.734;2023-04-15T05:42:00;101636.38;;;8.13;19.02
75409;BME280;63979;55.644;37.734;2023-04-15T05:47:03;101627.97;;;8.85;18.48
75409;BME280;63979;55.644;37.734;2023-04-15T05:52:06;101634.66;;;9.99;17.93
75409;BME280;63979;55.644;37.734;2023-04-15T05:57:09;101657.69;;;11.78;15.83
75409;BME280;63979;55.644;37.734;2023-04-15T06:02:11;101648.84;;;12.92;14.72
75409;BME280;63979;55.644;37.734;2023-04-15T06:07:14;101644.09;;;14.18;14.04
75409;BME280;63979;55.644;37.734;2023-04-15T06:12:16;101669.84;;;15.18;13.86
75409;BME280;63979;55.644;37.734;2023-04-15T06:17:18;101658.56;;;16.30;12.82
75409;BME280;63979;55.644;37.734;2023-04-15T06:22:21;101662.13;;;16.16;12.17
75409;BME280;63979;55.644;37.734;2023-04-15T06:27:24;101667.28;;;17.04;12.10
75409;BME280;63979;55.644;37.734;2023-04-15T06:32:26;101658.69;;;18.04;11.03
75409;BME280;63979;55.644;37.734;2023-04-15T06:37:28;101630.78;;;18.78;10.84
75409;BME280;63979;55.644;37.734;2023-04-15T06:42:30;101672.25;;;19.02;10.31
75409;BME280;63979;55.644;37.734;2023-04-15T06:47:33;101683.72;;;19.30;10.08
75409;BME280;63979;55.644;37.734;2023-04-15T06:52:35;101668.66;;;19.02;10.27
75409;BME280;63979;55.644;37.734;2023-04-15T06:57:37;101678.31;;;19.30;10.10
75409;BME280;63979;55.644;37.734;2023-04-15T07:02:39;101670.00;;;20.14;9.81
75409;BME280;63979;55.644;37.734;2023-04-15T07:07:41;101666.34;;;20.49;9.82
75409;BME280;63979;55.644;37.734;2023-04-15T07:12:44;101673.53;;;21.04;9.97
75409;BME280;63979;55.644;37.734;2023-04-15T07:17:46;101676.56;;;21.22;9.21
75409;BME280;63979;55.644;37.734;2023-04-15T07:22:49;101669.22;;;21.02;8.60
75409;BME280;63979;55.644;37.734;2023-04-15T07:27:53;101638.09;;;21.06;8.39
75409;BME280;63979;55.644;37.734;2023-04-15T07:32:56;101666.59;;;19.88;8.60
75409;BME280;63979;55.644;37.734;2023-04-15T07:37:59;101621.38;;;19.43;9.09
75409;BME280;63979;55.644;37.734;2023-04-15T07:43:01;101653.59;;;20.83;8.68
75409;BME280;63979;55.644;37.734;2023-04-15T07:48:04;101628.50;;;21.87;8.84
75409;BME280;63979;55.644;37.734;2023-04-15T07:53:07;101665.41;;;21.89;8.61
75409;BME280;63979;55.644;37.734;2023-04-15T07:58:10;101648.19;;;23.01;8.63
75409;BME280;63979;55.644;37.734;2023-04-15T08:03:12;101624.41;;;22.23;8.08
75409;BME280;63979;55.644;37.734;2023-04-15T08:08:14;101638.16;;;22.00;8.31
75409;BME280;63979;55.644;37.734;2023-04-15T08:13:17;101668.56;;;23.55;7.65
75409;BME280;63979;55.644;37.734;2023-04-15T08:18:19;101671.16;;;24.51;7.05
75409;BME280;63979;55.644;37.734;2023-04-15T08:23:22;101653.75;;;24.52;6.96
75409;BME280;63979;55.644;37.734;2023-04-15T08:28:24;101656.50;;;25.07;6.44
75409;BME280;63979;55.644;37.734;2023-04-15T08:33:26;101660.06;;;25.71;6.84
75409;BME280;63979;55.644;37.734;2023-04-15T08:38:29;101656.97;;;24.75;7.02
75409;BME280;63979;55.644;37.734;2023-04-15T08:43:44;101672.72;;;26.76;6.15
75409;BME280;63979;55.644;37.734;2023-04-15T08:48:48;101655.72;;;24.87;6.50
75409;BME280;63979;55.644;37.734;2023-04-15T08:53:51;101657.34;;;24.06;7.10
75409;BME280;63979;55.644;37.734;2023-04-15T08:58:54;101644.38;;;22.42;8.06
75409;BME280;63979;55.644;37.734;2023-04-15T09:03:58;101648.50;;;23.56;7.70
75409;BME280;63979;55.644;37.734;2023-04-15T09:09:00;101647.78;;;23.83;7.42
75409;BME280;63979;55.644;37.734;2023-04-15T09:14:03;101647.25;;;22.41;7.37
75409;BME280;63979;55.644;37.734;2023-04-15T09:19:20;101618.94;;;21.18;7.83
75409;BME280;63979;55.644;37.734;2023-04-15T09:24:24;101638.28;;;21.57;8.25
75409;BME280;63979;55.644;37.734;2023-04-15T09:29:28;101635.25;;;21.07;8.13
75409;BME280;63979;55.644;37.734;2023-04-15T09:34:34;101616.25;;;21.39;8.56
75409;BME280;63979;55.644;37.734;2023-04-15T09:39:48;101630.06;;;21.89;7.16
75409;BME280;63979;55.644;37.734;2023-04-15T09:44:51;101622.81;;;21.78;7.86
75409;BME280;63979;55.644;37.734;2023-04-15T09:49:55;101636.66;;;21.34;7.66
75409;BME280;63979;55.644;37.734;2023-04-15T09:54:58;101621.88;;;20.39;8.61
75409;BME280;63979;55.644;37.734;2023-04-15T10:00:06;101622.81;;;19.71;9.31
75409;BME280;63979;55.644;37.734;2023-04-15T10:05:13;101612.25;;;20.79;8.10
75409;BME280;63979;55.644;37.734;2023-04-15T10:10:17;101635.50;;;21.89;7.87
75409;BME280;63979;55.644;37.734;2023-04-15T10:15:19;101616.38;;;22.00;7.79
75409;BME280;63979;55.644;37.734;2023-04-15T10:20:22;101624.25;;;23.14;7.68
75409;BME280;63979;55.644;37.734;2023-04-15T10:25:25;101612.25;;;22.27;7.99
75409;BME280;63979;55.644;37.734;2023-04-15T10:30:28;101611.91;;;21.69;7.88
75409;BME280;63979;55.644;37.734;2023-04-15T10:35:32;101621.31;;;22.06;7.56
75409;BME280;63979;55.644;37.734;2023-04-15T10:40:37;101616.75;;;22.87;7.61
75409;BME280;63979;55.644;37.734;2023-04-15T10:45:43;101620.72;;;22.73;7.32
75409;BME280;63979;55.644;37.734;2023-04-15T10:50:56;101619.97;;;23.60;7.48
75409;BME280;63979;55.644;37.734;2023-04-15T10:55:58;101602.25;;;23.83;6.65
75409;BME280;63979;55.644;37.734;2023-04-15T11:01:00;101613.38;;;24.29;6.34
75409;BME280;63979;55.644;37.734;2023-04-15T11:06:04;101601.13;;;26.36;6.35
75409;BME280;63979;55.644;37.734;2023-04-15T11:11:07;101610.91;;;26.89;5.54
75409;BME280;63979;55.644;37.734;2023-04-15T11:16:09;101601.94;;;28.50;5.03
75409;BME280;63979;55.644;37.734;2023-04-15T11:21:11;101590.41;;;28.54;5.08
75409;BME280;63979;55.644;37.734;2023-04-15T11:26:13;101596.03;;;29.84;4.71
75409;BME280;63979;55.644;37.734;2023-04-15T11:31:17;101595.03;;;29.76;4.64
75409;BME280;63979;55.644;37.734;2023-04-15T11:36:29;101597.41;;;29.65;5.01
75409;BME280;63979;55.644;37.734;2023-04-15T11:41:32;101583.22;;;30.35;4.17
75409;BME280;63979;55.644;37.734;2023-04-15T11:46:36;101580.53;;;29.22;4.20
75409;BME280;63979;55.644;37.734;2023-04-15T11:51:38;101562.28;;;27.89;5.22
75409;BME280;63979;55.644;37.734;2023-04-15T11:56:40;101574.44;;;27.05;5.35
75409;BME280;63979;55.644;37.734;2023-04-15T12:01:41;101573.72;;;26.87;5.31
75409;BME280;63979;55.644;37.734;2023-04-15T12:06:44;101557.84;;;26.98;5.77
75409;BME280;63979;55.644;37.734;2023-04-15T12:11:49;101566.97;;;26.57;5.98
75409;BME280;63979;55.644;37.734;2023-04-15T12:16:56;101560.97;;;25.41;6.13
75409;BME280;63979;55.644;37.734;2023-04-15T12:22:00;101530.25;;;24.58;7.27
75409;BME280;63979;55.644;37.734;2023-04-15T12:27:06;101562.50;;;24.18;6.56
75409;BME280;63979;55.644;37.734;2023-04-15T12:32:09;101551.25;;;23.93;7.23
75409;BME280;63979;55.644;37.734;2023-04-15T12:37:11;101559.88;;;23.89;6.81
75409;BME280;63979;55.644;37.734;2023-04-15T12:42:16;101569.31;;;21.79;7.77
75409;BME280;63979;55.644;37.734;2023-04-15T12:47:17;101555.22;;;21.64;7.76
75409;BME280;63979;55.644;37.734;2023-04-15T12:52:18;101483.03;;;20.56;8.43
75409;BME280;63979;55.644;37.734;2023-04-15T12:57:19;101550.75;;;20.58;8.54
75409;BME280;63979;55.644;37.734;2023-04-15T13:02:20;101547.34;;;21.40;8.45
75409;BME280;63979;55.644;37.734;2023-04-15T13:07:24;101533.22;;;22.38;8.07
75409;BME280;63979;55.644;37.734;2023-04-15T13:12:25;101545.09;;;23.06;7.81
75409;BME280;63979;55.644;37.734;2023-04-15T13:17:26;101547.09;;;23.04;7.79
75409;BME280;63979;55.644;37.734;2023-04-15T13:22:27;101543.72;;;21.51;8.30
75409;BME280;63979;55.644;37.734;2023-04-15T13:27:28;101528.94;;;20.48;9.04
75409;BME280;63979;55.644;37.734;2023-04-15T13:32:29;101502.59;;;19.60;10.19
75409;BME280;63979;55.644;37.734;2023-04-15T13:37:30;101539.44;;;19.17;10.30
75409;BME280;63979;55.644;37.734;2023-04-15T13:42:31;101546.31;;;18.62;10.13
75409;BME280;63979;55.644;37.734;2023-04-15T13:47:32;101552.47;;;18.64;10.06
75409;BME280;63979;55.644;37.734;2023-04-15T13:52:33;101544.25;;;17.27;10.57
75409;BME280;63979;55.644;37.734;2023-04-15T13:57:34;101527.00;;;16.90;10.99
75409;BME280;63979;55.644;37.734;2023-04-15T14:02:35;101523.28;;;16.51;11.17
75409;BME280;63979;55.644;37.734;2023-04-15T14:07:36;101531.47;;;15.95;11.48
75409;BME280;63979;55.644;37.734;2023-04-15T14:12:37;101538.59;;;15.23;12.01
75409;BME280;63979;55.644;37.734;2023-04-15T14:17:38;101542.81;;;14.04;12.79
75409;BME280;63979;55.644;37.734;2023-04-15T14:22:41;101535.75;;;13.70;13.49
75409;BME280;63979;55.644;37.734;2023-04-15T14:27:42;101546.91;;;13.10;13.31
75409;BME280;63979;55.644;37.734;2023-04-15T14:32:43;101538.59;;;13.15;14.27
75409;BME280;63979;55.644;37.734;2023-04-15T14:37:44;101530.81;;;13.10;13.69
75409;BME280;63979;55.644;37.734;2023-04-15T14:42:45;101503.38;;;13.05;14.06
75409;BME280;63979;55.644;37.734;2023-04-15T14:47:47;101535.78;;;13.18;14.07
75409;BME280;63979;55.644;37.734;2023-04-15T14:52:49;101523.31;;;13.00;13.99
75409;BME280;63979;55.644;37.734;2023-04-15T14:57:51;101522.53;;;12.98;14.65
75409;BME280;63979;55.644;37.734;2023-04-15T15:02:52;101517.03;;;12.84;14.60
75409;BME280;63979;55.644;37.734;2023-04-15T15:07:53;101495.41;;;12.69;14.68
75409;BME280;63979;55.644;37.734;2023-04-15T15:12:54;101492.19;;;12.44;15.40
75409;BME280;63979;55.644;37.734;2023-04-15T15:17:56;101522.75;;;12.40;15.59
75409;BME280;63979;55.644;37.734;2023-04-15T15:22:57;101519.41;;;12.17;15.76
75409;BME280;63979;55.644;37.734;2023-04-15T15:27:58;101499.75;;;11.81;15.73
75409;BME280;63979;55.644;37.734;2023-04-15T15:32:59;101521.72;;;11.67;15.66
75409;BME280;63979;55.644;37.734;2023-04-15T15:38:00;101510.75;;;11.34;15.96
75409;BME280;63979;55.644;37.734;2023-04-15T15:43:01;101509.56;;;11.21;16.21
75409;BME280;63979;55.644;37.734;2023-04-15T15:48:03;101506.22;;;11.16;16.09
75409;BME280;63979;55.644;37.734;2023-04-15T15:53:04;101516.34;;;11.08;16.83
75409;BME280;63979;55.644;37.734;2023-04-15T15:58:05;101523.56;;;11.06;17.41
75409;BME280;63979;55.644;37.734;2023-04-15T16:03:06;101523.56;;;10.85;17.36
75409;BME280;63979;55.644;37.734;2023-04-15T16:08:07;101452.97;;;10.28;17.92
75409;BME280;63979;55.644;37.734;2023-04-15T16:13:08;101526.47;;;10.59;17.83
75409;BME280;63979;55.644;37.734;2023-04-15T16:18:10;101524.31;;;10.47;17.97
75409;BME280;63979;55.644;37.734;2023-04-15T16:23:13;101523.72;;;10.39;17.91
75409;BME280;63979;55.644;37.734;2023-04-15T16:28:14;101520.63;;;10.27;17.60
75409;BME280;63979;55.644;37.734;2023-04-15T16:33:15;101501.59;;;10.13;17.73
75409;BME280;63979;55.644;37.734;2023-04-15T16:38:16;101507.19;;;10.07;18.11
75409;BME280;63979;55.644;37.734;2023-04-15T16:43:17;101527.75;;;10.04;18.66
75409;BME280;63979;55.644;37.734;2023-04-15T16:48:19;101500.56;;;9.72;19.06
75409;BME280;63979;55.644;37.734;2023-04-15T16:53:20;101534.16;;;9.76;19.07
75409;BME280;63979;55.644;37.734;2023-04-15T16:58:21;101468.28;;;9.31;18.10
75409;BME280;63979;55.644;37.734;2023-04-15T17:03:22;101525.91;;;9.59;18.65
75409;BME280;63979;55.644;37.734;2023-04-15T17:08:24;101537.78;;;9.50;18.30
75409;BME280;63979;55.644;37.734;2023-04-15T17:13:26;101531.06;;;9.40;18.44
75409;BME280;63979;55.644;37.734;2023-04-15T17:18:28;101534.84;;;9.33;19.20
75409;BME280;63979;55.644;37.734;2023-04-15T17:23:43;101516.72;;;9.19;19.29
75409;BME280;63979;55.644;37.734;2023-04-15T17:28:48;101534.22;;;9.26;18.50
75409;BME280;63979;55.644;37.734;2023-04-15T17:33:58;101505.75;;;9.03;19.02
75409;BME280;63979;55.644;37.734;2023-04-15T17:39:19;101539.69;;;9.22;18.84
75409;BME280;63979;55.644;37.734;2023-04-15T17:44:40;101551.06;;;9.27;18.95
75409;BME280;63979;55.644;37.734;2023-04-15T17:50:01;101547.75;;;9.20;18.64
75409;BME280;63979;55.644;37.734;2023-04-15T17:55:23;101559.56;;;9.13;19.24
75409;BME280;63979;55.644;37.734;2023-04-15T18:00:44;101549.16;;;9.05;19.62
75409;BME280;63979;55.644;37.734;2023-04-15T18:06:06;101540.06;;;8.86;19.33
75409;BME280;63979;55.644;37.734;2023-04-15T18:11:28;101547.72;;;8.95;19.54
75409;BME280;63979;55.644;37.734;2023-04-15T18:16:50;101558.81;;;8.83;20.36
75409;BME280;63979;55.644;37.734;2023-04-15T18:22:11;101486.97;;;8.27;21.49
75409;BME280;63979;55.644;37.734;2023-04-15T18:27:12;101560.47;;;8.59;21.72
75409;BME280;63979;55.644;37.734;2023-04-15T18:32:14;101552.28;;;8.39;21.64
75409;BME280;63979;55.644;37.734;2023-04-15T18:37:15;101550.38;;;8.42;21.29
75409;BME280;63979;55.644;37.734;2023-04-15T18:42:16;101556.88;;;8.34;21.54
75409;BME280;63979;55.644;37.734;2023-04-15T18:47:17;101556.84;;;8.32;21.50
75409;BME280;63979;55.644;37.734;2023-04-15T18:52:19;101535.38;;;8.10;21.70
75409;BME280;63979;55.644;37.734;2023-04-15T18:57:22;101579.25;;;8.25;22.05
75409;BME280;63979;55.644;37.734;2023-04-15T19:02:23;101579.25;;;8.25;23.01
75409;BME280;63979;55.644;37.734;2023-04-15T19:07:24;101585.69;;;8.18;23.66
75409;BME280;63979;55.644;37.734;2023-04-15T19:12:25;101571.22;;;7.97;23.91
75409;BME280;63979;55.644;37.734;2023-04-15T19:17:26;101585.56;;;7.92;24.17
75409;BME280;63979;55.644;37.734;2023-04-15T19:22:28;101581.53;;;7.78;24.87
75409;BME280;63979;55.644;37.734;2023-04-15T19:27:29;101593.19;;;7.74;24.79
75409;BME280;63979;55.644;37.734;2023-04-15T19:32:30;101593.44;;;7.65;24.81
75409;BME280;63979;55.644;37.734;2023-04-15T19:37:31;101601.78;;;7.51;25.25
75409;BME280;63979;55.644;37.734;2023-04-15T19:42:32;101557.66;;;7.13;25.48
75409;BME280;63979;55.644;37.734;2023-04-15T19:47:35;101567.44;;;7.11;25.04
75409;BME280;63979;55.644;37.734;2023-04-15T19:52:36;101615.72;;;7.29;26.38
75409;BME280;63979;55.644;37.734;2023-04-15T19:57:37;101617.50;;;7.27;25.28
75409;BME280;63979;55.644;37.734;2023-04-15T20:02:38;101617.59;;;7.24;25.95
75409;BME280;63979;55.644;37.734;2023-04-15T20:07:40;101622.25;;;7.14;26.15
75409;BME280;63979;55.644;37.734;2023-04-15T20:12:42;101630.28;;;7.12;25.75
75409;BME280;63979;55.644;37.734;2023-04-15T20:17:43;101627.56;;;7.14;26.07
75409;BME280;63979;55.644;37.734;2023-04-15T20:22:44;101632.19;;;7.07;25.21
75409;BME280;63979;55.644;37.734;2023-04-15T20:27:45;101627.03;;;7.01;24.16
75409;BME280;63979;55.644;37.734;2023-04-15T20:32:46;101638.41;;;7.06;24.96
75409;BME280;63979;55.644;37.734;2023-04-15T20:37:47;101651.75;;;7.03;24.46
75409;BME280;63979;55.644;37.734;2023-04-15T20:42:48;101665.06;;;7.02;24.71
75409;BME280;63979;55.644;37.734;2023-04-15T20:47:49;101667.75;;;7.00;24.74
75409;BME280;63979;55.644;37.734;2023-04-15T20:52:51;101660.00;;;6.91;24.94
75409;BME280;63979;55.644;37.734;2023-04-15T20:57:52;101638.31;;;6.74;25.48
75409;BME280;63979;55.644;37.734;2023-04-15T21:02:53;101661.19;;;6.78;25.53
75409;BME280;63979;55.644;37.734;2023-04-15T21:07:54;101665.06;;;6.65;25.42
75409;BME280;63979;55.644;37.734;2023-04-15T21:12:56;101578.50;;;6.20;26.45
75409;BME280;63979;55.644;37.734;2023-04-15T21:17:57;101645.06;;;6.48;25.94
75409;BME280;63979;55.644;37.734;2023-04-15T21:22:58;101653.94;;;6.47;26.18
75409;BME280;63979;55.644;37.734;2023-04-15T21:28:00;101666.34;;;6.45;26.58
75409;BME280;63979;55.644;37.734;2023-04-15T21:33:03;101670.06;;;6.38;26.93
75409;BME280;63979;55.644;37.734;2023-04-15T21:38:04;101663.25;;;6.27;26.88
75409;BME280;63979;55.644;37.734;2023-04-15T21:43:06;101669.47;;;6.25;27.11
75409;BME280;63979;55.644;37.734;2023-04-15T21:48:07;101665.28;;;6.12;27.74
75409;BME280;63979;55.644;37.734;2023-04-15T21:53:08;101681.50;;;5.99;27.69
75409;BME280;63979;55.644;37.734;2023-04-15T21:58:09;101697.47;;;5.96;28.53
75409;BME280;63979;55.644;37.734;2023-04-15T22:03:11;101688.78;;;5.84;28.20
75409;BME280;63979;55.644;37.734;2023-04-15T22:08:12;101683.63;;;5.77;28.47
75409;BME280;63979;55.644;37.734;2023-04-15T22:13:13;101632.16;;;5.44;29.01
75409;BME280;63979;55.644;37.734;2023-04-15T22:18:15;101695.22;;;5.71;29.30
75409;BME280;63979;55.644;37.734;2023-04-15T22:23:16;101578.31;;;4.95;29.11
75409;BME280;63979;55.644;37.734;2023-04-15T22:28:20;101701.69;;;5.55;29.62
75409;BME280;63979;55.644;37.734;2023-04-15T22:33:21;101647.69;;;5.13;29.99
75409;BME280;63979;55.644;37.734;2023-04-15T22:38:23;101670.59;;;5.15;30.05
75409;BME280;63979;55.644;37.734;2023-04-15T22:43:25;101643.63;;;4.93;30.64
75409;BME280;63979;55.644;37.734;2023-04-15T22:48:27;101690.94;;;5.12;31.30
75409;BME280;63979;55.644;37.734;2023-04-15T22:53:28;101685.84;;;5.01;31.02
75409;BME280;63979;55.644;37.734;2023-04-15T22:58:29;101720.13;;;5.07;31.75
75409;BME280;63979;55.644;37.734;2023-04-15T23:03:31;101642.41;;;4.59;32.38
75409;BME280;63979;55.644;37.734;2023-04-15T23:08:33;101712.41;;;4.93;31.70
75409;BME280;63979;55.644;37.734;2023-04-15T23:13:34;101724.81;;;4.90;31.86
75409;BME280;63979;55.644;37.734;2023-04-15T23:18:35;101725.78;;;4.83;31.84
75409;BME280;63979;55.644;37.734;2023-04-15T23:23:36;101718.84;;;4.76;32.26
75409;BME280;63979;55.644;37.734;2023-04-15T23:28:38;101722.44;;;4.72;31.73
75409;BME280;63979;55.644;37.734;2023-04-15T23:33:39;101728.63;;;4.70;31.28
75409;BME280;63979;55.644;37.734;2023-04-15T23:38:40;101734.72;;;4.74;31.28
75409;BME280;63979;55.644;37.734;2023-04-15T23:43:42;101746.22;;;4.72;31.91
75409;BME280;63979;55.644;37.734;2023-04-15T23:48:43;101745.41;;;4.68;32.13
75409;BME280;63979;55.644;37.734;2023-04-15T23:53:44;101659.72;;;4.14;31.91
75409;BME280;63979;55.644;37.734;2023-04-15T23:58:45;101749.03;;;4.59;32.08
